sensor_id;sensor_type;location;lat;lon;timestamp;temperature;humidity
14737;DHT22;7459;53.590;10.062;2023-03-21T00:01:18;8.70;99.90
14737;DHT22;7459;53.590;10.062;2023-03-21T00:03:44;8.70;99.90
14737;DHT22;7459;53.590;10.062;2023-03-21T00:06:12;8.70;99.90
14737;DHT22;7459;53.590;10.062;2023-03-21T00:08:39;8.70;99.90
14737;DHT22;7459;53.590;10.062;2023-03-21T00:11:07;8.70;99.90
14737;DHT22;7459;53.590;10.062;2023-03-21T00:13:34;8.70;99.90
14737;DHT22;7459;53.590;10.062;2023-03-21T00:16:14;8.70;99.90
14737;DHT22;7459;53.590;10.062;2023-03-21T00:18:43;8.70;99.90
14737;DHT22;7459;53.590;10.062;2023-03-21T00:21:13;8.70;99.90
14737;DHT22;7459;53.590;10.062;2023-03-21T00:23:41;8.70;99.90
14737;DHT22;7459;53.590;10.062;2023-03-21T00:26:07;8.70;99.90
14737;DHT22;7459;53.590;10.062;2023-03-21T00:28:35;8.70;99.90
14737;DHT22;7459;53.590;10.062;2023-03-21T00:31:01;8.70;99.90
14737;DHT22;7459;53.590;10.062;2023-03-21T00:33:27;8.70;99.90
14737;DHT22;7459;53.590;10.062;2023-03-21T00:35:54;8.70;99.90
14737;DHT22;7459;53.590;10.062;2023-03-21T00:38:21;8.70;99.90
14737;DHT22;7459;53.590;10.062;2023-03-21T00:40:48;8.70;99.90
14737;DHT22;7459;53.590;10.062;2023-03-21T00:43:14;8.70;99.90
14737;DHT22;7459;53.590;10.062;2023-03-21T00:45:44;8.70;99.90
14737;DHT22;7459;53.590;10.062;2023-03-21T00:48:11;8.60;99.90
14737;DHT22;7459;53.590;10.062;2023-03-21T00:50:38;8.70;99.90
14737;DHT22;7459;53.590;10.062;2023-03-21T00:53:04;8.70;99.90
14737;DHT22;7459;53.590;10.062;2023-03-21T00:55:30;8.60;99.90
14737;DHT22;7459;53.590;10.062;2023-03-21T00:57:56;8.60;99.90
14737;DHT22;7459;53.590;10.062;2023-03-21T01:00:22;8.60;99.90
14737;DHT22;7459;53.590;10.062;2023-03-21T01:02:48;8.70;99.90
14737;DHT22;7459;53.590;10.062;2023-03-21T01:05:25;8.70;99.90
14737;DHT22;7459;53.590;10.062;2023-03-21T01:08:12;8.70;99.90
14737;DHT22;7459;53.590;10.062;2023-03-21T01:10:41;8.70;99.90
14737;DHT22;7459;53.590;10.062;2023-03-21T01:13:10;8.70;99.90
14737;DHT22;7459;53.590;10.062;2023-03-21T01:15:42;8.70;99.90
14737;DHT22;7459;53.590;10.062;2023-03-21T01:18:16;8.70;99.90
14737;DHT22;7459;53.590;10.062;2023-03-21T01:20:43;8.70;99.90
14737;DHT22;7459;53.590;10.062;2023-03-21T01:23:11;8.70;99.90
14737;DHT22;7459;53.590;10.062;2023-03-21T01:25:38;8.70;99.90
14737;DHT22;7459;53.590;10.062;2023-03-21T01:28:04;8.70;99.90
14737;DHT22;7459;53.590;10.062;2023-03-21T01:30:30;8.70;99.90
14737;DHT22;7459;53.590;10.062;2023-03-21T01:32:56;8.60;99.90
14737;DHT22;7459;53.590;10.062;2023-03-21T01:35:22;8.70;99.90
14737;DHT22;7459;53.590;10.062;2023-03-21T01:37:49;8.70;99.90
14737;DHT22;7459;53.590;10.062;2023-03-21T01:40:24;8.70;99.90
14737;DHT22;7459;53.590;10.062;2023-03-21T01:42:51;8.70;99.90
14737;DHT22;7459;53.590;10.062;2023-03-21T01:48:23;8.70;99.90
14737;DHT22;7459;53.590;10.062;2023-03-21T01:50:51;8.70;99.90
14737;DHT22;7459;53.590;10.062;2023-03-21T01:53:19;8.70;99.90
14737;DHT22;7459;53.590;10.062;2023-03-21T01:55:47;8.70;99.90
14737;DHT22;7459;53.590;10.062;2023-03-21T01:58:15;8.70;99.90
14737;DHT22;7459;53.590;10.062;2023-03-21T02:00:43;8.70;99.90
14737;DHT22;7459;53.590;10.062;2023-03-21T02:03:10;8.70;99.90
14737;DHT22;7459;53.590;10.062;2023-03-21T02:05:50;8.70;99.90
14737;DHT22;7459;53.590;10.062;2023-03-21T02:08:17;8.70;99.90
14737;DHT22;7459;53.590;10.062;2023-03-21T02:10:44;8.70;99.90
14737;DHT22;7459;53.590;10.062;2023-03-21T02:13:12;8.70;99.90
14737;DHT22;7459;53.590;10.062;2023-03-21T02:15:40;8.70;99.90
14737;DHT22;7459;53.590;10.062;2023-03-21T02:18:13;8.70;99.90
14737;DHT22;7459;53.590;10.062;2023-03-21T02:21:09;8.70;99.90
14737;DHT22;7459;53.590;10.062;2023-03-21T02:23:54;8.70;99.90
14737;DHT22;7459;53.590;10.062;2023-03-21T02:33:09;8.70;99.90
14737;DHT22;7459;53.590;10.062;2023-03-21T02:36:15;8.70;99.90
14737;DHT22;7459;53.590;10.062;2023-03-21T02:41:54;8.70;99.90
14737;DHT22;7459;53.590;10.062;2023-03-21T02:44:46;8.70;99.90
14737;DHT22;7459;53.590;10.062;2023-03-21T02:47:50;8.70;99.90
14737;DHT22;7459;53.590;10.062;2023-03-21T02:50:23;8.70;99.90
14737;DHT22;7459;53.590;10.062;2023-03-21T02:52:54;8.70;99.90
14737;DHT22;7459;53.590;10.062;2023-03-21T02:55:24;8.70;99.90
14737;DHT22;7459;53.590;10.062;2023-03-21T02:57:52;8.70;99.90
14737;DHT22;7459;53.590;10.062;2023-03-21T03:00:25;8.70;99.90
14737;DHT22;7459;53.590;10.062;2023-03-21T03:02:54;8.70;99.90
14737;DHT22;7459;53.590;10.062;2023-03-21T03:10:46;8.70;99.90
14737;DHT22;7459;53.590;10.062;2023-03-21T03:16:10;8.70;99.90
14737;DHT22;7459;53.590;10.062;2023-03-21T03:24:06;8.70;99.90
14737;DHT22;7459;53.590;10.062;2023-03-21T03:26:36;8.80;99.90
14737;DHT22;7459;53.590;10.062;2023-03-21T03:29:10;8.80;99.90
14737;DHT22;7459;53.590;10.062;2023-03-21T03:31:49;8.80;99.90
14737;DHT22;7459;53.590;10.062;2023-03-21T03:34:21;8.80;99.90
14737;DHT22;7459;53.590;10.062;2023-03-21T03:36:58;8.80;99.90
14737;DHT22;7459;53.590;10.062;2023-03-21T03:39:34;8.80;99.90
14737;DHT22;7459;53.590;10.062;2023-03-21T03:42:11;8.80;99.90
14737;DHT22;7459;53.590;10.062;2023-03-21T03:44:40;8.80;99.90
14737;DHT22;7459;53.590;10.062;2023-03-21T03:47:11;8.80;99.90
14737;DHT22;7459;53.590;10.062;2023-03-21T03:50:01;8.80;99.90
14737;DHT22;7459;53.590;10.062;2023-03-21T03:52:41;8.80;99.90
14737;DHT22;7459;53.590;10.062;2023-03-21T03:55:11;8.80;99.90
14737;DHT22;7459;53.590;10.062;2023-03-21T03:57:39;8.80;99.90
14737;DHT22;7459;53.590;10.062;2023-03-21T04:00:05;8.80;99.90
14737;DHT22;7459;53.590;10.062;2023-03-21T04:02:36;8.80;99.90
14737;DHT22;7459;53.590;10.062;2023-03-21T04:05:02;8.80;99.90
14737;DHT22;7459;53.590;10.062;2023-03-21T04:07:28;8.80;99.90
14737;DHT22;7459;53.590;10.062;2023-03-21T04:09:54;8.90;99.90
14737;DHT22;7459;53.590;10.062;2023-03-21T04:12:19;8.90;99.90
14737;DHT22;7459;53.590;10.062;2023-03-21T04:14:45;8.80;99.90
14737;DHT22;7459;53.590;10.062;2023-03-21T04:17:11;8.90;99.90
14737;DHT22;7459;53.590;10.062;2023-03-21T04:19:37;8.80;99.90
14737;DHT22;7459;53.590;10.062;2023-03-21T04:22:02;8.80;99.90
14737;DHT22;7459;53.590;10.062;2023-03-21T04:24:28;8.80;99.90
14737;DHT22;7459;53.590;10.062;2023-03-21T04:26:58;8.80;99.90
14737;DHT22;7459;53.590;10.062;2023-03-21T04:29:25;8.80;99.90
14737;DHT22;7459;53.590;10.062;2023-03-21T04:31:54;8.80;99.90
14737;DHT22;7459;53.590;10.062;2023-03-21T04:34:20;8.80;99.90
14737;DHT22;7459;53.590;10.062;2023-03-21T04:36:49;8.90;99.90
14737;DHT22;7459;53.590;10.062;2023-03-21T04:39:15;8.90;99.90
14737;DHT22;7459;53.590;10.062;2023-03-21T04:41:43;8.80;99.90
14737;DHT22;7459;53.590;10.062;2023-03-21T04:44:11;8.80;99.90
14737;DHT22;7459;53.590;10.062;2023-03-21T04:46:38;8.90;99.90
14737;DHT22;7459;53.590;10.062;2023-03-21T04:49:04;8.90;99.90
14737;DHT22;7459;53.590;10.062;2023-03-21T04:51:32;8.80;99.90
14737;DHT22;7459;53.590;10.062;2023-03-21T04:53:58;8.80;99.90
14737;DHT22;7459;53.590;10.062;2023-03-21T04:56:24;8.90;99.90
14737;DHT22;7459;53.590;10.062;2023-03-21T04:59:00;8.90;99.90
14737;DHT22;7459;53.590;10.062;2023-03-21T05:01:37;8.80;99.90
14737;DHT22;7459;53.590;10.062;2023-03-21T05:04:03;8.90;99.90
14737;DHT22;7459;53.590;10.062;2023-03-21T05:06:30;8.80;99.90
14737;DHT22;7459;53.590;10.062;2023-03-21T05:08:57;8.90;99.90
14737;DHT22;7459;53.590;10.062;2023-03-21T05:11:30;8.80;99.90
14737;DHT22;7459;53.590;10.062;2023-03-21T05:13:58;8.80;99.90
14737;DHT22;7459;53.590;10.062;2023-03-21T05:16:24;8.80;99.90
14737;DHT22;7459;53.590;10.062;2023-03-21T05:18:54;8.90;99.90
14737;DHT22;7459;53.590;10.062;2023-03-21T05:21:21;8.90;99.90
14737;DHT22;7459;53.590;10.062;2023-03-21T05:23:48;8.90;99.90
14737;DHT22;7459;53.590;10.062;2023-03-21T05:26:23;8.80;99.90
14737;DHT22;7459;53.590;10.062;2023-03-21T05:28:49;8.90;99.90
14737;DHT22;7459;53.590;10.062;2023-03-21T05:31:18;8.90;99.90
14737;DHT22;7459;53.590;10.062;2023-03-21T05:33:45;8.80;99.90
14737;DHT22;7459;53.590;10.062;2023-03-21T05:36:12;8.90;99.90
14737;DHT22;7459;53.590;10.062;2023-03-21T05:38:38;8.80;99.90
14737;DHT22;7459;53.590;10.062;2023-03-21T05:41:15;8.90;99.90
14737;DHT22;7459;53.590;10.062;2023-03-21T05:43:41;8.80;99.90
14737;DHT22;7459;53.590;10.062;2023-03-21T05:46:07;8.90;99.90
14737;DHT22;7459;53.590;10.062;2023-03-21T05:48:33;8.90;99.90
14737;DHT22;7459;53.590;10.062;2023-03-21T05:50:59;8.90;99.90
14737;DHT22;7459;53.590;10.062;2023-03-21T05:53:26;8.90;99.90
14737;DHT22;7459;53.590;10.062;2023-03-21T05:55:52;8.90;99.90
14737;DHT22;7459;53.590;10.062;2023-03-21T05:58:17;8.90;99.90
14737;DHT22;7459;53.590;10.062;2023-03-21T06:00:43;8.90;99.90
14737;DHT22;7459;53.590;10.062;2023-03-21T06:03:09;8.90;99.90
14737;DHT22;7459;53.590;10.062;2023-03-21T06:05:35;8.90;99.90
14737;DHT22;7459;53.590;10.062;2023-03-21T06:08:01;8.90;99.90
14737;DHT22;7459;53.590;10.062;2023-03-21T06:10:26;8.90;99.90
14737;DHT22;7459;53.590;10.062;2023-03-21T06:12:52;8.90;99.90
14737;DHT22;7459;53.590;10.062;2023-03-21T06:15:18;8.90;99.90
14737;DHT22;7459;53.590;10.062;2023-03-21T06:17:44;8.90;99.90
14737;DHT22;7459;53.590;10.062;2023-03-21T06:20:10;8.90;99.90
14737;DHT22;7459;53.590;10.062;2023-03-21T06:22:37;8.90;99.90
14737;DHT22;7459;53.590;10.062;2023-03-21T06:25:04;8.90;99.90
14737;DHT22;7459;53.590;10.062;2023-03-21T06:27:32;8.90;99.90
14737;DHT22;7459;53.590;10.062;2023-03-21T06:29:58;8.90;99.90
14737;DHT22;7459;53.590;10.062;2023-03-21T06:32:24;8.90;99.90
14737;DHT22;7459;53.590;10.062;2023-03-21T06:34:51;8.90;99.90
14737;DHT22;7459;53.590;10.062;2023-03-21T06:37:17;8.90;99.90
14737;DHT22;7459;53.590;10.062;2023-03-21T06:39:43;8.90;99.90
14737;DHT22;7459;53.590;10.062;2023-03-21T06:42:09;9.00;99.90
14737;DHT22;7459;53.590;10.062;2023-03-21T06:44:35;8.90;99.90
14737;DHT22;7459;53.590;10.062;2023-03-21T06:47:01;9.00;99.90
14737;DHT22;7459;53.590;10.062;2023-03-21T06:49:27;9.00;99.90
14737;DHT22;7459;53.590;10.062;2023-03-21T06:51:52;9.00;99.90
14737;DHT22;7459;53.590;10.062;2023-03-21T06:54:19;9.00;99.90
14737;DHT22;7459;53.590;10.062;2023-03-21T06:56:45;9.00;99.90
14737;DHT22;7459;53.590;10.062;2023-03-21T06:59:11;9.00;99.90
14737;DHT22;7459;53.590;10.062;2023-03-21T07:01:37;9.00;99.90
14737;DHT22;7459;53.590;10.062;2023-03-21T07:04:03;9.00;99.90
14737;DHT22;7459;53.590;10.062;2023-03-21T07:06:29;9.00;99.90
14737;DHT22;7459;53.590;10.062;2023-03-21T07:08:55;9.00;99.90
14737;DHT22;7459;53.590;10.062;2023-03-21T07:11:22;9.00;99.90
14737;DHT22;7459;53.590;10.062;2023-03-21T07:13:48;9.00;99.90
14737;DHT22;7459;53.590;10.062;2023-03-21T07:16:16;9.00;99.90
14737;DHT22;7459;53.590;10.062;2023-03-21T07:18:43;9.10;99.90
14737;DHT22;7459;53.590;10.062;2023-03-21T07:21:09;9.10;99.90
14737;DHT22;7459;53.590;10.062;2023-03-21T07:23:35;9.10;99.90
14737;DHT22;7459;53.590;10.062;2023-03-21T07:26:03;9.10;99.90
14737;DHT22;7459;53.590;10.062;2023-03-21T07:28:29;9.10;99.90
14737;DHT22;7459;53.590;10.062;2023-03-21T07:31:01;9.10;99.90
14737;DHT22;7459;53.590;10.062;2023-03-21T07:33:29;9.10;99.90
14737;DHT22;7459;53.590;10.062;2023-03-21T07:35:56;9.10;99.90
14737;DHT22;7459;53.590;10.062;2023-03-21T07:38:22;9.10;99.90
14737;DHT22;7459;53.590;10.062;2023-03-21T07:40:48;9.10;99.90
14737;DHT22;7459;53.590;10.062;2023-03-21T07:43:15;9.10;99.90
14737;DHT22;7459;53.590;10.062;2023-03-21T07:45:41;9.10;99.90
14737;DHT22;7459;53.590;10.062;2023-03-21T07:48:07;9.10;99.90
14737;DHT22;7459;53.590;10.062;2023-03-21T07:50:34;9.20;99.90
14737;DHT22;7459;53.590;10.062;2023-03-21T07:53:00;9.20;99.90
14737;DHT22;7459;53.590;10.062;2023-03-21T07:55:26;9.20;99.90
14737;DHT22;7459;53.590;10.062;2023-03-21T07:57:52;9.20;99.90
14737;DHT22;7459;53.590;10.062;2023-03-21T08:00:19;9.20;99.90
14737;DHT22;7459;53.590;10.062;2023-03-21T08:02:53;9.20;99.90
14737;DHT22;7459;53.590;10.062;2023-03-21T08:05:21;9.20;99.90
14737;DHT22;7459;53.590;10.062;2023-03-21T08:07:47;9.20;99.90
14737;DHT22;7459;53.590;10.062;2023-03-21T08:10:13;9.20;99.90
14737;DHT22;7459;53.590;10.062;2023-03-21T08:12:39;9.20;99.90
14737;DHT22;7459;53.590;10.062;2023-03-21T08:15:05;9.30;99.90
14737;DHT22;7459;53.590;10.062;2023-03-21T08:17:31;9.30;99.90
14737;DHT22;7459;53.590;10.062;2023-03-21T08:19:57;9.30;99.90
14737;DHT22;7459;53.590;10.062;2023-03-21T08:22:22;9.30;99.90
14737;DHT22;7459;53.590;10.062;2023-03-21T08:24:48;9.30;99.90
14737;DHT22;7459;53.590;10.062;2023-03-21T08:27:14;9.30;99.90
14737;DHT22;7459;53.590;10.062;2023-03-21T08:29:39;9.30;99.90
14737;DHT22;7459;53.590;10.062;2023-03-21T08:32:07;9.30;99.90
14737;DHT22;7459;53.590;10.062;2023-03-21T08:34:34;9.30;99.90
14737;DHT22;7459;53.590;10.062;2023-03-21T08:37:00;9.30;99.90
14737;DHT22;7459;53.590;10.062;2023-03-21T08:39:26;9.40;99.90
14737;DHT22;7459;53.590;10.062;2023-03-21T08:41:52;9.40;99.90
14737;DHT22;7459;53.590;10.062;2023-03-21T08:44:18;9.40;99.90
14737;DHT22;7459;53.590;10.062;2023-03-21T08:46:44;9.40;99.90
14737;DHT22;7459;53.590;10.062;2023-03-21T08:49:10;9.40;99.90
14737;DHT22;7459;53.590;10.062;2023-03-21T08:51:36;9.40;99.90
14737;DHT22;7459;53.590;10.062;2023-03-21T08:54:02;9.40;99.90
14737;DHT22;7459;53.590;10.062;2023-03-21T08:56:28;9.50;99.90
14737;DHT22;7459;53.590;10.062;2023-03-21T08:58:54;9.50;99.90
14737;DHT22;7459;53.590;10.062;2023-03-21T09:01:19;9.40;99.90
14737;DHT22;7459;53.590;10.062;2023-03-21T09:03:45;9.40;99.90
14737;DHT22;7459;53.590;10.062;2023-03-21T09:06:11;9.40;99.90
14737;DHT22;7459;53.590;10.062;2023-03-21T09:08:39;9.50;99.90
14737;DHT22;7459;53.590;10.062;2023-03-21T09:11:07;9.50;99.90
14737;DHT22;7459;53.590;10.062;2023-03-21T09:13:33;9.40;99.90
14737;DHT22;7459;53.590;10.062;2023-03-21T09:15:59;9.50;99.90
14737;DHT22;7459;53.590;10.062;2023-03-21T09:18:28;9.50;99.90
14737;DHT22;7459;53.590;10.062;2023-03-21T09:21:12;9.50;99.90
14737;DHT22;7459;53.590;10.062;2023-03-21T09:23:40;9.50;99.90
14737;DHT22;7459;53.590;10.062;2023-03-21T09:26:07;9.50;99.90
14737;DHT22;7459;53.590;10.062;2023-03-21T09:28:34;9.50;99.90
14737;DHT22;7459;53.590;10.062;2023-03-21T09:31:01;9.50;99.90
14737;DHT22;7459;53.590;10.062;2023-03-21T09:33:28;9.50;99.90
14737;DHT22;7459;53.590;10.062;2023-03-21T09:35:55;9.60;99.90
14737;DHT22;7459;53.590;10.062;2023-03-21T09:38:21;9.60;99.90
14737;DHT22;7459;53.590;10.062;2023-03-21T09:40:56;9.60;99.90
14737;DHT22;7459;53.590;10.062;2023-03-21T09:43:38;9.60;99.90
14737;DHT22;7459;53.590;10.062;2023-03-21T09:46:12;9.60;99.90
14737;DHT22;7459;53.590;10.062;2023-03-21T09:49:00;9.60;99.90
14737;DHT22;7459;53.590;10.062;2023-03-21T09:51:35;9.60;99.90
14737;DHT22;7459;53.590;10.062;2023-03-21T09:54:12;9.60;99.90
14737;DHT22;7459;53.590;10.062;2023-03-21T09:56:44;9.70;99.90
14737;DHT22;7459;53.590;10.062;2023-03-21T09:59:24;9.70;99.90
14737;DHT22;7459;53.590;10.062;2023-03-21T10:01:53;9.70;99.90
14737;DHT22;7459;53.590;10.062;2023-03-21T10:04:20;9.70;99.90
14737;DHT22;7459;53.590;10.062;2023-03-21T10:06:54;9.70;99.90
14737;DHT22;7459;53.590;10.062;2023-03-21T10:09:23;9.70;99.90
14737;DHT22;7459;53.590;10.062;2023-03-21T10:12:03;9.70;99.90
14737;DHT22;7459;53.590;10.062;2023-03-21T10:14:43;9.70;99.90
14737;DHT22;7459;53.590;10.062;2023-03-21T10:17:37;9.80;99.90
14737;DHT22;7459;53.590;10.062;2023-03-21T10:20:14;9.70;99.90
14737;DHT22;7459;53.590;10.062;2023-03-21T10:22:41;9.80;99.90
14737;DHT22;7459;53.590;10.062;2023-03-21T10:25:14;9.80;99.90
14737;DHT22;7459;53.590;10.062;2023-03-21T10:27:42;9.80;99.90
14737;DHT22;7459;53.590;10.062;2023-03-21T10:30:10;9.80;99.90
14737;DHT22;7459;53.590;10.062;2023-03-21T10:32:43;9.80;99.90
14737;DHT22;7459;53.590;10.062;2023-03-21T10:35:12;9.80;99.90
14737;DHT22;7459;53.590;10.062;2023-03-21T10:37:38;9.80;99.90
14737;DHT22;7459;53.590;10.062;2023-03-21T10:40:04;9.80;99.90
14737;DHT22;7459;53.590;10.062;2023-03-21T10:42:33;9.80;99.90
14737;DHT22;7459;53.590;10.062;2023-03-21T10:45:01;9.80;99.90
14737;DHT22;7459;53.590;10.062;2023-03-21T10:47:31;9.80;99.90
14737;DHT22;7459;53.590;10.062;2023-03-21T10:50:07;9.80;99.90
14737;DHT22;7459;53.590;10.062;2023-03-21T10:52:40;9.80;99.90
14737;DHT22;7459;53.590;10.062;2023-03-21T10:55:24;9.80;99.90
14737;DHT22;7459;53.590;10.062;2023-03-21T10:57:59;9.80;99.90
14737;DHT22;7459;53.590;10.062;2023-03-21T11:00:33;9.80;99.90
14737;DHT22;7459;53.590;10.062;2023-03-21T11:03:04;9.80;99.90
14737;DHT22;7459;53.590;10.062;2023-03-21T11:08:11;9.80;99.90
14737;DHT22;7459;53.590;10.062;2023-03-21T11:11:01;9.80;99.90
14737;DHT22;7459;53.590;10.062;2023-03-21T11:13:58;9.80;99.90
14737;DHT22;7459;53.590;10.062;2023-03-21T11:16:31;9.80;99.90
14737;DHT22;7459;53.590;10.062;2023-03-21T11:19:11;9.90;99.90
14737;DHT22;7459;53.590;10.062;2023-03-21T11:21:40;9.90;99.90
14737;DHT22;7459;53.590;10.062;2023-03-21T11:24:14;9.90;99.90
14737;DHT22;7459;53.590;10.062;2023-03-21T11:26:44;9.90;99.90
14737;DHT22;7459;53.590;10.062;2023-03-21T11:32:13;9.90;99.90
14737;DHT22;7459;53.590;10.062;2023-03-21T11:34:47;9.90;99.90
14737;DHT22;7459;53.590;10.062;2023-03-21T11:37:24;9.90;99.90
14737;DHT22;7459;53.590;10.062;2023-03-21T11:40:23;9.90;99.90
14737;DHT22;7459;53.590;10.062;2023-03-21T11:43:41;9.90;99.90
14737;DHT22;7459;53.590;10.062;2023-03-21T11:45:58;9.90;99.90
14737;DHT22;7459;53.590;10.062;2023-03-21T11:48:26;9.90;99.90
14737;DHT22;7459;53.590;10.062;2023-03-21T11:51:02;9.90;99.90
14737;DHT22;7459;53.590;10.062;2023-03-21T11:59:05;10.00;99.90
14737;DHT22;7459;53.590;10.062;2023-03-21T12:02:00;10.00;99.90
14737;DHT22;7459;53.590;10.062;2023-03-21T12:04:40;10.00;99.90
14737;DHT22;7459;53.590;10.062;2023-03-21T12:13:17;10.00;99.90
14737;DHT22;7459;53.590;10.062;2023-03-21T12:16:12;10.00;99.90
14737;DHT22;7459;53.590;10.062;2023-03-21T12:22:31;10.00;99.90
14737;DHT22;7459;53.590;10.062;2023-03-21T12:25:14;10.00;99.90
14737;DHT22;7459;53.590;10.062;2023-03-21T12:34:51;10.10;99.90
14737;DHT22;7459;53.590;10.062;2023-03-21T12:49:12;10.20;99.90
14737;DHT22;7459;53.590;10.062;2023-03-21T12:51:44;10.20;99.90
14737;DHT22;7459;53.590;10.062;2023-03-21T12:57:25;10.20;99.90
14737;DHT22;7459;53.590;10.062;2023-03-21T13:00:13;10.20;99.90
14737;DHT22;7459;53.590;10.062;2023-03-21T13:03:05;10.20;99.90
14737;DHT22;7459;53.590;10.062;2023-03-21T13:05:55;10.20;99.90
14737;DHT22;7459;53.590;10.062;2023-03-21T13:08:38;10.20;99.90
14737;DHT22;7459;53.590;10.062;2023-03-21T13:11:07;10.20;99.90
14737;DHT22;7459;53.590;10.062;2023-03-21T13:14:26;10.20;99.90
14737;DHT22;7459;53.590;10.062;2023-03-21T13:16:57;10.10;99.90
14737;DHT22;7459;53.590;10.062;2023-03-21T13:22:28;10.10;99.90
14737;DHT22;7459;53.590;10.062;2023-03-21T13:25:14;10.20;99.90
14737;DHT22;7459;53.590;10.062;2023-03-21T13:27:42;10.20;99.90
14737;DHT22;7459;53.590;10.062;2023-03-21T13:30:24;10.20;99.90
14737;DHT22;7459;53.590;10.062;2023-03-21T13:33:12;10.20;99.90
14737;DHT22;7459;53.590;10.062;2023-03-21T13:35:40;10.20;99.90
14737;DHT22;7459;53.590;10.062;2023-03-21T13:38:20;10.20;99.90
14737;DHT22;7459;53.590;10.062;2023-03-21T13:41:07;10.20;99.90
14737;DHT22;7459;53.590;10.062;2023-03-21T13:51:42;10.20;99.90
14737;DHT22;7459;53.590;10.062;2023-03-21T13:59:16;10.30;99.90
14737;DHT22;7459;53.590;10.062;2023-03-21T14:04:30;10.20;99.90
14737;DHT22;7459;53.590;10.062;2023-03-21T14:07:09;10.20;99.90
14737;DHT22;7459;53.590;10.062;2023-03-21T14:09:47;10.20;99.90
14737;DHT22;7459;53.590;10.062;2023-03-21T14:12:24;10.30;99.90
14737;DHT22;7459;53.590;10.062;2023-03-21T14:15:04;10.30;99.90
14737;DHT22;7459;53.590;10.062;2023-03-21T14:17:34;10.30;99.90
14737;DHT22;7459;53.590;10.062;2023-03-21T14:20:05;10.30;99.90
14737;DHT22;7459;53.590;10.062;2023-03-21T14:22:37;10.30;99.90
14737;DHT22;7459;53.590;10.062;2023-03-21T14:25:07;10.30;99.90
14737;DHT22;7459;53.590;10.062;2023-03-21T14:27:38;10.30;99.90
14737;DHT22;7459;53.590;10.062;2023-03-21T14:30:10;10.30;99.90
14737;DHT22;7459;53.590;10.062;2023-03-21T14:32:46;10.30;99.90
14737;DHT22;7459;53.590;10.062;2023-03-21T14:35:12;10.30;99.90
14737;DHT22;7459;53.590;10.062;2023-03-21T14:37:41;10.30;99.90
14737;DHT22;7459;53.590;10.062;2023-03-21T14:40:19;10.30;99.90
14737;DHT22;7459;53.590;10.062;2023-03-21T14:42:48;10.30;99.90
14737;DHT22;7459;53.590;10.062;2023-03-21T14:45:26;10.30;99.90
14737;DHT22;7459;53.590;10.062;2023-03-21T14:50:35;10.20;99.90
14737;DHT22;7459;53.590;10.062;2023-03-21T14:53:05;10.20;99.90
14737;DHT22;7459;53.590;10.062;2023-03-21T14:55:32;10.20;99.90
14737;DHT22;7459;53.590;10.062;2023-03-21T14:57:58;10.20;99.90
14737;DHT22;7459;53.590;10.062;2023-03-21T15:00:28;10.20;99.90
14737;DHT22;7459;53.590;10.062;2023-03-21T15:02:57;10.20;99.90
14737;DHT22;7459;53.590;10.062;2023-03-21T15:05:34;10.20;99.90
14737;DHT22;7459;53.590;10.062;2023-03-21T15:08:05;10.20;99.90
14737;DHT22;7459;53.590;10.062;2023-03-21T15:10:33;10.30;99.90
14737;DHT22;7459;53.590;10.062;2023-03-21T15:13:01;10.30;99.90
14737;DHT22;7459;53.590;10.062;2023-03-21T15:15:37;10.30;99.90
14737;DHT22;7459;53.590;10.062;2023-03-21T15:18:05;10.20;99.90
14737;DHT22;7459;53.590;10.062;2023-03-21T15:20:34;10.30;99.90
14737;DHT22;7459;53.590;10.062;2023-03-21T15:23:05;10.30;99.90
14737;DHT22;7459;53.590;10.062;2023-03-21T15:25:35;10.30;99.90
14737;DHT22;7459;53.590;10.062;2023-03-21T15:28:02;10.20;99.90
14737;DHT22;7459;53.590;10.062;2023-03-21T15:30:29;10.30;99.90
14737;DHT22;7459;53.590;10.062;2023-03-21T15:32:57;10.30;99.90
14737;DHT22;7459;53.590;10.062;2023-03-21T15:35:44;10.30;99.90
14737;DHT22;7459;53.590;10.062;2023-03-21T15:40:46;10.30;99.90
14737;DHT22;7459;53.590;10.062;2023-03-21T15:43:17;10.30;99.90
14737;DHT22;7459;53.590;10.062;2023-03-21T15:45:52;10.30;99.90
14737;DHT22;7459;53.590;10.062;2023-03-21T15:48:27;10.30;99.90
14737;DHT22;7459;53.590;10.062;2023-03-21T15:51:00;10.30;99.90
14737;DHT22;7459;53.590;10.062;2023-03-21T15:53:32;10.30;99.90
14737;DHT22;7459;53.590;10.062;2023-03-21T15:55:59;10.30;99.90
14737;DHT22;7459;53.590;10.062;2023-03-21T15:58:41;10.30;99.90
14737;DHT22;7459;53.590;10.062;2023-03-21T16:01:16;10.20;99.90
14737;DHT22;7459;53.590;10.062;2023-03-21T16:03:46;10.20;99.90
14737;DHT22;7459;53.590;10.062;2023-03-21T16:06:21;10.20;99.90
14737;DHT22;7459;53.590;10.062;2023-03-21T16:08:53;10.20;99.90
14737;DHT22;7459;53.590;10.062;2023-03-21T16:11:58;10.20;99.90
14737;DHT22;7459;53.590;10.062;2023-03-21T16:14:25;10.20;99.90
14737;DHT22;7459;53.590;10.062;2023-03-21T16:16:55;10.20;99.90
14737;DHT22;7459;53.590;10.062;2023-03-21T16:19:21;10.20;99.90
14737;DHT22;7459;53.590;10.062;2023-03-21T16:21:48;10.20;99.90
14737;DHT22;7459;53.590;10.062;2023-03-21T16:24:14;10.20;99.90
14737;DHT22;7459;53.590;10.062;2023-03-21T16:26:45;10.10;99.90
14737;DHT22;7459;53.590;10.062;2023-03-21T16:29:16;10.10;99.90
14737;DHT22;7459;53.590;10.062;2023-03-21T16:31:42;10.10;99.90
14737;DHT22;7459;53.590;10.062;2023-03-21T16:34:09;10.10;99.90
14737;DHT22;7459;53.590;10.062;2023-03-21T16:36:38;10.10;99.90
14737;DHT22;7459;53.590;10.062;2023-03-21T16:39:17;10.10;99.90
14737;DHT22;7459;53.590;10.062;2023-03-21T16:41:46;10.10;99.90
14737;DHT22;7459;53.590;10.062;2023-03-21T16:44:11;10.00;99.90
14737;DHT22;7459;53.590;10.062;2023-03-21T16:46:37;10.10;99.90
14737;DHT22;7459;53.590;10.062;2023-03-21T16:49:03;10.00;99.90
14737;DHT22;7459;53.590;10.062;2023-03-21T16:51:34;10.00;99.90
14737;DHT22;7459;53.590;10.062;2023-03-21T16:54:01;10.00;99.90
14737;DHT22;7459;53.590;10.062;2023-03-21T16:56:39;10.00;99.90
14737;DHT22;7459;53.590;10.062;2023-03-21T16:59:10;10.00;99.90
14737;DHT22;7459;53.590;10.062;2023-03-21T17:01:38;10.00;99.90
14737;DHT22;7459;53.590;10.062;2023-03-21T17:04:05;10.00;99.90
14737;DHT22;7459;53.590;10.062;2023-03-21T17:06:32;10.00;99.90
14737;DHT22;7459;53.590;10.062;2023-03-21T17:09:02;10.00;99.90
14737;DHT22;7459;53.590;10.062;2023-03-21T17:11:29;10.00;99.90
14737;DHT22;7459;53.590;10.062;2023-03-21T17:14:00;10.00;99.90
14737;DHT22;7459;53.590;10.062;2023-03-21T17:16:27;10.00;99.90
14737;DHT22;7459;53.590;10.062;2023-03-21T17:18:53;10.00;99.90
14737;DHT22;7459;53.590;10.062;2023-03-21T17:21:22;10.00;99.90
14737;DHT22;7459;53.590;10.062;2023-03-21T17:23:50;10.00;99.90
14737;DHT22;7459;53.590;10.062;2023-03-21T17:26:24;10.00;99.90
14737;DHT22;7459;53.590;10.062;2023-03-21T17:28:52;10.00;99.90
14737;DHT22;7459;53.590;10.062;2023-03-21T17:31:21;10.00;99.90
14737;DHT22;7459;53.590;10.062;2023-03-21T17:33:47;10.00;99.90
14737;DHT22;7459;53.590;10.062;2023-03-21T17:36:18;10.00;99.90
14737;DHT22;7459;53.590;10.062;2023-03-21T17:38:45;10.00;99.90